Disclaimer

Please do not use the information listed here in-flight or in-navigation, as they are not provided to us by the airports but are provided by volunteers, so they might be outdated.

Search


Regions


Airport information page

Radio informations:
INFO - 122.1 MHz
RDO - 5637 MHz

Airport informations:
Latitude: 35° 25' 17.07" N
Longitude: 027° 08' 45.63" E
Elevation: 66 feet - 20 meters
Operating hours: Remarks
Operating agency: Civil government, landing fees and diplomatic clearance may be required
Timezone: UTC+2(+3DT) - Last Sunday in March to last Sunday in October
Fuel: Jet A1, without icing nhibitor.

Runway information:
12/30 - 7871 x 98 feet< - >2399 x 30 meters

Recent METARs:
LGKP 151150Z 13015KT 9999 FEW025 19/13 Q1018
LGKP 151220Z 13013KT 9999 FEW025 19/14 Q1018
LGKP 151250Z 12014KT 9999 FEW025 19/14 Q1018

Airport on the map: